Grizzly Air Cargo 5119


PAJN
Juneau International Airport
Juneau, Alaska, US
PASI
Sitka Rocky Gutierrez Airport
Sitka, Alaska, US

Activity Log

Date Flight Route Aircraft Duration
06/21/2020 GRZ5119 RODMN1 RODMN B722 0h 28m
07/26/2019 GRZ513 RODMN1 RODMN B722 0h 37m
06/30/2019 GRZ513 RODMN1 RODMN B722 1h 01m
03/21/2019 GRZ513 MARMN HOODS B722 0h 30m

Route Details

Aircraft Information
Primary: Boeing 727-200F
Backup: Boeing 737-800BCF
Route Data
Distance: 97nm
Sched. Duration: 0h 35m
Avg. Duration: 0h 49m (+14m)
Times Flown: 4
Recm'd Route: RODMN1 RODMN
Planned Altitude: 16,000ft
Origin Wx: PAJN 282353Z 09005KT 10SM FEW004 BKN037 BKN044 06/04 A3001 RMK A02 SLP161 60008 T00560039 10067 20050 50000
Dest. Wx: PASI 282353Z 12006KT 10SM FEW020 SCT039 07/03 A3002 RMK AO2 SLP166 60017 T00720033 10072 20050 56006
Notes:

Financial History
Total Freight: 157,943lbs
Average Load: 39,486lbs/flt
Fuel Used: 19,269lbs
Avg. Fuel Used: 4,817lbs/flt
Fuel Expense: $20,618
Avg. Fuel Expense: $5,154
Avg. Fuel Cost: $1.07/lbs
Total Gross Income: $231,912
Pilot Pay: $756
Total Expenses: $25,254
Total Revenue: $185,510
Average Revenue: $57,978.00